sensor_id;sensor_type;location;lat;lon;timestamp;pressure;altitude;pressure_sealevel;temperature;humidity
71194;BME280;58903;47.210;8.618;2023-04-27T00:01:14;94232.75;;;26.10;39.48
71194;BME280;58903;47.210;8.618;2023-04-27T00:03:42;94220.25;;;26.09;40.00
71194;BME280;58903;47.210;8.618;2023-04-27T00:06:10;94216.75;;;26.09;40.05
71194;BME280;58903;47.210;8.618;2023-04-27T00:08:36;94216.00;;;26.08;39.83
71194;BME280;58903;47.210;8.618;2023-04-27T00:11:02;94207.72;;;26.08;39.71
71194;BME280;58903;47.210;8.618;2023-04-27T00:13:28;94209.22;;;26.09;40.17
71194;BME280;58903;47.210;8.618;2023-04-27T00:15:56;94212.47;;;26.08;40.49
71194;BME280;58903;47.210;8.618;2023-04-27T00:18:28;94209.22;;;26.09;39.65
71194;BME280;58903;47.210;8.618;2023-04-27T00:20:57;94207.94;;;26.10;39.56
71194;BME280;58903;47.210;8.618;2023-04-27T00:23:24;94202.44;;;26.10;39.57
71194;BME280;58903;47.210;8.618;2023-04-27T00:25:50;94207.94;;;26.10;40.23
71194;BME280;58903;47.210;8.618;2023-04-27T00:28:20;94211.47;;;26.11;40.06
71194;BME280;58903;47.210;8.618;2023-04-27T00:30:51;94201.69;;;26.10;39.96
71194;BME280;58903;47.210;8.618;2023-04-27T00:33:21;94196.69;;;26.08;39.90
71194;BME280;58903;47.210;8.618;2023-04-27T00:35:47;94205.19;;;26.10;39.84
71194;BME280;58903;47.210;8.618;2023-04-27T00:38:15;94200.44;;;26.11;39.63
71194;BME280;58903;47.210;8.618;2023-04-27T00:40:43;94207.19;;;26.10;40.17
71194;BME280;58903;47.210;8.618;2023-04-27T00:43:12;94203.72;;;26.09;40.51
71194;BME280;58903;47.210;8.618;2023-04-27T00:45:41;94202.97;;;26.09;40.46
71194;BME280;58903;47.210;8.618;2023-04-27T00:48:09;94198.94;;;26.10;40.20
71194;BME280;58903;47.210;8.618;2023-04-27T00:50:36;94198.22;;;26.09;40.55
71194;BME280;58903;47.210;8.618;2023-04-27T00:53:04;94203.72;;;26.09;40.28
71194;BME280;58903;47.210;8.618;2023-04-27T00:55:31;94198.69;;;26.08;39.84
71194;BME280;58903;47.210;8.618;2023-04-27T00:57:57;94199.47;;;26.08;40.47
71194;BME280;58903;47.210;8.618;2023-04-27T01:00:23;94201.44;;;26.08;40.85
71194;BME280;58903;47.210;8.618;2023-04-27T01:02:50;94197.72;;;26.05;40.35
71194;BME280;58903;47.210;8.618;2023-04-27T01:05:18;94200.72;;;26.07;39.79
71194;BME280;58903;47.210;8.618;2023-04-27T01:07:47;94201.72;;;26.04;40.13
71194;BME280;58903;47.210;8.618;2023-04-27T01:10:16;94205.47;;;26.07;39.67
71194;BME280;58903;47.210;8.618;2023-04-27T01:12:41;94202.97;;;26.09;39.66
71194;BME280;58903;47.210;8.618;2023-04-27T01:15:08;94192.94;;;26.06;40.01
71194;BME280;58903;47.210;8.618;2023-04-27T01:17:39;94214.50;;;26.07;40.09
71194;BME280;58903;47.210;8.618;2023-04-27T01:20:06;94206.72;;;26.06;39.88
71194;BME280;58903;47.210;8.618;2023-04-27T01:22:36;94203.47;;;26.07;39.93
71194;BME280;58903;47.210;8.618;2023-04-27T01:25:05;94211.72;;;26.07;39.79
71194;BME280;58903;47.210;8.618;2023-04-27T01:27:39;94208.97;;;26.07;39.69
71194;BME280;58903;47.210;8.618;2023-04-27T01:30:15;94209.47;;;26.06;40.16
71194;BME280;58903;47.210;8.618;2023-04-27T01:32:41;94207.25;;;26.04;40.19
71194;BME280;58903;47.210;8.618;2023-04-27T01:35:08;94215.75;;;26.06;40.07
71194;BME280;58903;47.210;8.618;2023-04-27T01:37:36;94218.50;;;26.06;40.57
71194;BME280;58903;47.210;8.618;2023-04-27T01:40:05;94203.75;;;26.04;40.58
71194;BME280;58903;47.210;8.618;2023-04-27T01:42:32;94212.00;;;26.09;39.88
71194;BME280;58903;47.210;8.618;2023-04-27T01:44:58;94210.97;;;26.07;40.41
71194;BME280;58903;47.210;8.618;2023-04-27T01:47:27;94212.47;;;26.08;40.13
71194;BME280;58903;47.210;8.618;2023-04-27T01:49:53;94215.00;;;26.06;40.07
71194;BME280;58903;47.210;8.618;2023-04-27T01:52:19;94219.78;;;26.05;40.31
71194;BME280;58903;47.210;8.618;2023-04-27T01:54:50;94222.53;;;26.05;39.76
71194;BME280;58903;47.210;8.618;2023-04-27T01:57:16;94220.50;;;26.06;39.84
71194;BME280;58903;47.210;8.618;2023-04-27T01:59:46;94214.25;;;26.05;40.09
71194;BME280;58903;47.210;8.618;2023-04-27T02:02:14;94220.81;;;26.02;40.69
71194;BME280;58903;47.210;8.618;2023-04-27T02:04:40;94228.53;;;26.04;40.16
71194;BME280;58903;47.210;8.618;2023-04-27T02:07:13;94239.06;;;26.05;40.62
71194;BME280;58903;47.210;8.618;2023-04-27T02:09:40;94237.56;;;26.04;39.77
71194;BME280;58903;47.210;8.618;2023-04-27T02:12:09;94238.09;;;26.03;39.97
71194;BME280;58903;47.210;8.618;2023-04-27T02:14:40;94230.09;;;25.99;39.84
71194;BME280;58903;47.210;8.618;2023-04-27T02:17:06;94243.06;;;26.04;40.02
71194;BME280;58903;47.210;8.618;2023-04-27T02:19:41;94246.59;;;26.05;40.47
71194;BME280;58903;47.210;8.618;2023-04-27T02:22:16;94238.09;;;26.03;40.02
71194;BME280;58903;47.210;8.618;2023-04-27T02:24:44;94240.09;;;26.02;40.46
71194;BME280;58903;47.210;8.618;2023-04-27T02:27:11;94237.09;;;26.00;40.44
71194;BME280;58903;47.210;8.618;2023-04-27T02:29:39;94238.31;;;26.05;40.00
71194;BME280;58903;47.210;8.618;2023-04-27T02:32:07;94243.59;;;26.03;39.81
71194;BME280;58903;47.210;8.618;2023-04-27T02:34:37;94238.09;;;26.03;39.88
71194;BME280;58903;47.210;8.618;2023-04-27T02:37:05;94228.84;;;26.00;40.05
71194;BME280;58903;47.210;8.618;2023-04-27T02:39:33;94220.56;;;26.00;40.17
71194;BME280;58903;47.210;8.618;2023-04-27T02:42:00;94224.81;;;26.01;40.10
71194;BME280;58903;47.210;8.618;2023-04-27T02:44:28;94224.81;;;26.01;40.08
71194;BME280;58903;47.210;8.618;2023-04-27T02:47:01;94216.03;;;26.03;39.88
71194;BME280;58903;47.210;8.618;2023-04-27T02:49:41;94220.03;;;26.02;40.38
71194;BME280;58903;47.210;8.618;2023-04-27T02:52:10;94224.81;;;26.01;40.73
71194;BME280;58903;47.210;8.618;2023-04-27T02:54:36;94224.81;;;26.01;40.73
71194;BME280;58903;47.210;8.618;2023-04-27T02:57:15;94229.06;;;26.02;39.87
71194;BME280;58903;47.210;8.618;2023-04-27T02:59:43;94229.59;;;26.01;40.68
71194;BME280;58903;47.210;8.618;2023-04-27T03:02:20;94234.34;;;26.00;40.21
71194;BME280;58903;47.210;8.618;2023-04-27T03:04:51;94228.84;;;26.00;40.58
71194;BME280;58903;47.210;8.618;2023-04-27T03:07:20;94232.34;;;26.01;40.49
71194;BME280;58903;47.210;8.618;2023-04-27T03:09:47;94230.31;;;26.01;40.41
71194;BME280;58903;47.210;8.618;2023-04-27T03:12:14;94230.31;;;26.01;40.61
71194;BME280;58903;47.210;8.618;2023-04-27T03:14:42;94233.06;;;26.01;39.88
71194;BME280;58903;47.210;8.618;2023-04-27T03:17:19;94241.34;;;26.01;40.57
71194;BME280;58903;47.210;8.618;2023-04-27T03:19:46;94226.09;;;26.00;40.04
71194;BME280;58903;47.210;8.618;2023-04-27T03:22:16;94216.31;;;25.99;40.07
71194;BME280;58903;47.210;8.618;2023-04-27T03:24:48;94217.81;;;26.00;39.52
71194;BME280;58903;47.210;8.618;2023-04-27T03:27:16;94224.56;;;25.99;40.27
71194;BME280;58903;47.210;8.618;2023-04-27T03:29:44;94227.34;;;25.99;40.36
71194;BME280;58903;47.210;8.618;2023-04-27T03:32:11;94231.59;;;26.00;40.11
71194;BME280;58903;47.210;8.618;2023-04-27T03:34:48;94226.59;;;25.99;40.66
71194;BME280;58903;47.210;8.618;2023-04-27T03:37:20;94230.09;;;25.99;39.80
71194;BME280;58903;47.210;8.618;2023-04-27T03:39:46;94226.59;;;25.99;40.66
71194;BME280;58903;47.210;8.618;2023-04-27T03:42:50;94221.81;;;25.99;40.61
71194;BME280;58903;47.210;8.618;2023-04-27T03:45:29;94228.38;;;25.96;39.96
71194;BME280;58903;47.210;8.618;2023-04-27T03:47:55;94215.84;;;25.95;39.94
71194;BME280;58903;47.210;8.618;2023-04-27T03:50:21;94215.84;;;25.95;40.02
71194;BME280;58903;47.210;8.618;2023-04-27T03:52:57;94227.63;;;25.96;40.47
71194;BME280;58903;47.210;8.618;2023-04-27T03:55:43;94224.13;;;25.95;40.79
71194;BME280;58903;47.210;8.618;2023-04-27T03:58:10;94231.88;;;25.97;40.24
71194;BME280;58903;47.210;8.618;2023-04-27T04:00:45;94228.38;;;25.96;40.64
71194;BME280;58903;47.210;8.618;2023-04-27T04:03:23;94231.88;;;25.97;40.89
71194;BME280;58903;47.210;8.618;2023-04-27T04:05:50;94239.91;;;25.95;39.91
71194;BME280;58903;47.210;8.618;2023-04-27T04:08:18;94232.38;;;25.95;40.42
71194;BME280;58903;47.210;8.618;2023-04-27T04:11:15;94235.16;;;25.95;39.99
71194;BME280;58903;47.210;8.618;2023-04-27T04:14:12;94230.91;;;25.94;40.87
71194;BME280;58903;47.210;8.618;2023-04-27T04:16:39;94234.41;;;25.95;40.32
71194;BME280;58903;47.210;8.618;2023-04-27T04:22:38;94236.19;;;25.92;40.02
71194;BME280;58903;47.210;8.618;2023-04-27T04:25:04;94237.16;;;25.95;40.31
71194;BME280;58903;47.210;8.618;2023-04-27T04:27:32;94243.41;;;25.95;40.65
71194;BME280;58903;47.210;8.618;2023-04-27T04:30:07;94242.16;;;25.96;40.70
71194;BME280;58903;47.210;8.618;2023-04-27T04:32:34;94240.44;;;25.93;40.81
71194;BME280;58903;47.210;8.618;2023-04-27T04:35:31;94236.44;;;25.94;39.89
71194;BME280;58903;47.210;8.618;2023-04-27T04:38:30;94235.69;;;25.94;40.03
71194;BME280;58903;47.210;8.618;2023-04-27T04:40:57;94232.16;;;25.93;41.03
71194;BME280;58903;47.210;8.618;2023-04-27T04:43:24;94246.69;;;25.94;40.42
71194;BME280;58903;47.210;8.618;2023-04-27T04:46:08;94236.44;;;25.94;40.95
71194;BME280;58903;47.210;8.618;2023-04-27T04:48:34;94241.94;;;25.94;40.08
71194;BME280;58903;47.210;8.618;2023-04-27T04:51:00;94236.44;;;25.94;40.66
71194;BME280;58903;47.210;8.618;2023-04-27T04:53:26;94241.94;;;25.94;40.59
71194;BME280;58903;47.210;8.618;2023-04-27T04:55:52;94237.69;;;25.93;40.78
71194;BME280;58903;47.210;8.618;2023-04-27T04:58:22;94232.69;;;25.92;40.76
71194;BME280;58903;47.210;8.618;2023-04-27T05:00:50;94234.91;;;25.93;40.32
71194;BME280;58903;47.210;8.618;2023-04-27T05:03:18;94232.38;;;25.95;40.97
71194;BME280;58903;47.210;8.618;2023-04-27T05:05:44;94231.63;;;25.95;40.63
71194;BME280;58903;47.210;8.618;2023-04-27T05:08:10;94234.91;;;25.93;40.83
71194;BME280;58903;47.210;8.618;2023-04-27T05:10:38;94229.19;;;25.91;40.77
71194;BME280;58903;47.210;8.618;2023-04-27T05:13:04;94234.16;;;25.93;40.68
71194;BME280;58903;47.210;8.618;2023-04-27T05:15:30;94228.16;;;25.94;40.41
71194;BME280;58903;47.210;8.618;2023-04-27T05:17:58;94228.16;;;25.94;40.75
71194;BME280;58903;47.210;8.618;2023-04-27T05:20:33;94228.16;;;25.94;40.72
71194;BME280;58903;47.210;8.618;2023-04-27T05:23:01;94232.38;;;25.95;40.39
71194;BME280;58903;47.210;8.618;2023-04-27T05:25:30;94230.16;;;25.94;40.79
71194;BME280;58903;47.210;8.618;2023-04-27T05:27:59;94234.91;;;25.93;40.11
71194;BME280;58903;47.210;8.618;2023-04-27T05:30:36;94234.91;;;25.93;40.57
71194;BME280;58903;47.210;8.618;2023-04-27T05:33:07;94236.44;;;25.94;40.29
71194;BME280;58903;47.210;8.618;2023-04-27T05:35:42;94234.91;;;25.93;40.84
71194;BME280;58903;47.210;8.618;2023-04-27T05:38:09;94236.94;;;25.93;40.47
71194;BME280;58903;47.210;8.618;2023-04-27T05:40:41;94243.94;;;25.94;40.09
71194;BME280;58903;47.210;8.618;2023-04-27T05:43:07;94242.97;;;25.91;40.88
71194;BME280;58903;47.210;8.618;2023-04-27T05:45:42;94243.19;;;25.93;40.03
71194;BME280;58903;47.210;8.618;2023-04-27T05:48:27;94239.19;;;25.94;41.01
71194;BME280;58903;47.210;8.618;2023-04-27T05:51:10;94241.94;;;25.94;40.71
71194;BME280;58903;47.210;8.618;2023-04-27T05:53:43;94237.44;;;25.91;40.45
71194;BME280;58903;47.210;8.618;2023-04-27T05:56:22;94243.19;;;25.93;40.58
71194;BME280;58903;47.210;8.618;2023-04-27T05:58:59;94250.69;;;25.93;40.55
71194;BME280;58903;47.210;8.618;2023-04-27T06:01:34;94256.75;;;25.91;41.12
71194;BME280;58903;47.210;8.618;2023-04-27T06:04:17;94264.72;;;25.95;40.57
71194;BME280;58903;47.210;8.618;2023-04-27T06:06:52;94259.94;;;25.95;40.78
71194;BME280;58903;47.210;8.618;2023-04-27T06:09:30;94261.22;;;25.94;40.25
71194;BME280;58903;47.210;8.618;2023-04-27T06:12:14;94262.72;;;25.95;40.45
71194;BME280;58903;47.210;8.618;2023-04-27T06:15:01;94270.75;;;25.93;40.28
71194;BME280;58903;47.210;8.618;2023-04-27T06:17:45;94270.97;;;25.95;40.86
71194;BME280;58903;47.210;8.618;2023-04-27T06:20:23;94261.22;;;25.94;41.08
71194;BME280;58903;47.210;8.618;2023-04-27T06:23:00;94264.72;;;25.95;40.23
71194;BME280;58903;47.210;8.618;2023-04-27T06:25:29;94275.00;;;25.94;40.34
71194;BME280;58903;47.210;8.618;2023-04-27T06:28:19;94267.47;;;25.95;40.54
71194;BME280;58903;47.210;8.618;2023-04-27T06:30:54;94273.50;;;25.93;40.57
71194;BME280;58903;47.210;8.618;2023-04-27T06:33:36;94270.97;;;25.95;40.76
71194;BME280;58903;47.210;8.618;2023-04-27T06:36:05;94271.72;;;25.96;41.00
71194;BME280;58903;47.210;8.618;2023-04-27T06:38:35;94263.97;;;25.94;40.75
71194;BME280;58903;47.210;8.618;2023-04-27T06:41:12;94271.72;;;25.96;40.94
71194;BME280;58903;47.210;8.618;2023-04-27T06:43:45;94280.53;;;25.94;40.18
71194;BME280;58903;47.210;8.618;2023-04-27T06:46:23;94275.72;;;25.95;40.81
71194;BME280;58903;47.210;8.618;2023-04-27T06:49:00;94277.75;;;25.94;40.74
71194;BME280;58903;47.210;8.618;2023-04-27T06:51:27;94284.22;;;25.97;40.27
71194;BME280;58903;47.210;8.618;2023-04-27T06:53:57;94284.22;;;25.97;40.94
71194;BME280;58903;47.210;8.618;2023-04-27T06:59:55;94290.50;;;25.97;40.36
71194;BME280;58903;47.210;8.618;2023-04-27T07:02:21;94291.53;;;25.94;40.38
71194;BME280;58903;47.210;8.618;2023-04-27T07:05:17;94289.00;;;25.96;40.64
71194;BME280;58903;47.210;8.618;2023-04-27T07:07:51;94301.06;;;25.93;40.15
71194;BME280;58903;47.210;8.618;2023-04-27T07:10:19;94299.28;;;25.96;40.92
71194;BME280;58903;47.210;8.618;2023-04-27T07:12:54;94307.31;;;25.94;40.77
71194;BME280;58903;47.210;8.618;2023-04-27T07:15:40;94308.06;;;25.94;40.86
71194;BME280;58903;47.210;8.618;2023-04-27T07:18:18;94310.59;;;25.92;40.38
71194;BME280;58903;47.210;8.618;2023-04-27T07:21:01;94309.56;;;25.95;40.76
71194;BME280;58903;47.210;8.618;2023-04-27T07:23:40;94315.34;;;25.92;40.16
71194;BME280;58903;47.210;8.618;2023-04-27T07:26:10;94319.09;;;25.94;40.65
71194;BME280;58903;47.210;8.618;2023-04-27T07:28:51;94319.09;;;25.94;40.48
71194;BME280;58903;47.210;8.618;2023-04-27T07:31:18;94317.06;;;25.95;39.98
71194;BME280;58903;47.210;8.618;2023-04-27T07:33:57;94313.59;;;25.94;39.89
71194;BME280;58903;47.210;8.618;2023-04-27T07:36:25;94318.34;;;25.94;40.78
71194;BME280;58903;47.210;8.618;2023-04-27T07:38:54;94309.84;;;25.92;39.96
71194;BME280;58903;47.210;8.618;2023-04-27T07:41:28;94306.78;;;25.95;40.14
71194;BME280;58903;47.210;8.618;2023-04-27T07:43:58;94313.59;;;25.94;40.81
71194;BME280;58903;47.210;8.618;2023-04-27T07:46:27;94305.31;;;25.94;40.32
71194;BME280;58903;47.210;8.618;2023-04-27T07:48:55;94304.03;;;25.95;40.64
71194;BME280;58903;47.210;8.618;2023-04-27T07:51:23;94303.53;;;25.97;40.32
71194;BME280;58903;47.210;8.618;2023-04-27T07:54:01;94299.06;;;25.94;39.83
71194;BME280;58903;47.210;8.618;2023-04-27T07:56:35;94304.28;;;25.97;39.82
71194;BME280;58903;47.210;8.618;2023-04-27T08:02:13;94301.50;;;25.97;39.82
71194;BME280;58903;47.210;8.618;2023-04-27T08:04:43;94293.78;;;25.96;39.86
71194;BME280;58903;47.210;8.618;2023-04-27T08:07:43;94297.50;;;25.98;40.56
71194;BME280;58903;47.210;8.618;2023-04-27T08:10:12;94297.50;;;25.98;39.73
71194;BME280;58903;47.210;8.618;2023-04-27T08:12:42;94287.97;;;25.99;40.73
71194;BME280;58903;47.210;8.618;2023-04-27T08:15:09;94287.97;;;25.99;39.68
71194;BME280;58903;47.210;8.618;2023-04-27T08:17:48;94284.97;;;25.97;39.90
71194;BME280;58903;47.210;8.618;2023-04-27T08:20:16;94285.22;;;25.99;40.51
71194;BME280;58903;47.210;8.618;2023-04-27T08:22:51;94283.97;;;26.00;40.38
71194;BME280;58903;47.210;8.618;2023-04-27T08:25:27;94283.44;;;26.02;40.29
71194;BME280;58903;47.210;8.618;2023-04-27T08:30:42;94277.91;;;26.02;39.82
71194;BME280;58903;47.210;8.618;2023-04-27T08:33:10;94283.44;;;26.02;40.05
71194;BME280;58903;47.210;8.618;2023-04-27T08:35:46;94284.19;;;26.02;40.40
71194;BME280;58903;47.210;8.618;2023-04-27T08:38:46;94284.94;;;26.03;39.68
71194;BME280;58903;47.210;8.618;2023-04-27T08:41:36;94284.94;;;26.03;40.51
71194;BME280;58903;47.210;8.618;2023-04-27T08:44:19;94281.44;;;26.02;39.80
71194;BME280;58903;47.210;8.618;2023-04-27T08:46:59;94277.41;;;26.03;39.57
71194;BME280;58903;47.210;8.618;2023-04-27T08:49:38;94286.19;;;26.02;40.12
71194;BME280;58903;47.210;8.618;2023-04-27T08:52:23;94282.91;;;26.03;40.19
71194;BME280;58903;47.210;8.618;2023-04-27T08:55:22;94282.69;;;26.01;40.06
71194;BME280;58903;47.210;8.618;2023-04-27T08:57:55;94277.66;;;26.05;39.61
71194;BME280;58903;47.210;8.618;2023-04-27T09:00:47;94283.91;;;26.06;40.08
71194;BME280;58903;47.210;8.618;2023-04-27T09:03:29;94287.41;;;26.06;40.15
71194;BME280;58903;47.210;8.618;2023-04-27T09:09:01;94276.38;;;26.06;39.77
71194;BME280;58903;47.210;8.618;2023-04-27T09:11:55;94280.16;;;26.09;40.23
71194;BME280;58903;47.210;8.618;2023-04-27T09:14:33;94274.63;;;26.09;39.51
71194;BME280;58903;47.210;8.618;2023-04-27T09:17:25;94281.63;;;26.10;40.20
71194;BME280;58903;47.210;8.618;2023-04-27T09:20:18;94277.63;;;26.11;39.49
71194;BME280;58903;47.210;8.618;2023-04-27T09:22:59;94276.09;;;26.10;39.75
71194;BME280;58903;47.210;8.618;2023-04-27T09:25:41;94279.13;;;26.12;39.81
71194;BME280;58903;47.210;8.618;2023-04-27T09:28:17;94282.59;;;26.12;39.66
71194;BME280;58903;47.210;8.618;2023-04-27T09:30:57;94284.09;;;26.13;39.79
71194;BME280;58903;47.210;8.618;2023-04-27T09:33:33;94272.56;;;26.15;39.71
71194;BME280;58903;47.210;8.618;2023-04-27T09:36:15;94282.34;;;26.16;40.24
71194;BME280;58903;47.210;8.618;2023-04-27T09:38:41;94281.56;;;26.15;40.00
71194;BME280;58903;47.210;8.618;2023-04-27T09:41:22;94272.03;;;26.16;39.99
71194;BME280;58903;47.210;8.618;2023-04-27T09:44:13;94275.78;;;26.19;39.30
71194;BME280;58903;47.210;8.618;2023-04-27T09:46:40;94276.53;;;26.20;39.67
71194;BME280;58903;47.210;8.618;2023-04-27T09:49:08;94272.28;;;26.19;40.04
71194;BME280;58903;47.210;8.618;2023-04-27T09:51:40;94277.81;;;26.19;39.72
71194;BME280;58903;47.210;8.618;2023-04-27T09:54:08;94277.28;;;26.20;39.94
71194;BME280;58903;47.210;8.618;2023-04-27T10:00:12;94268.25;;;26.20;39.62
71194;BME280;58903;47.210;8.618;2023-04-27T10:09:36;94267.94;;;26.23;39.33
71194;BME280;58903;47.210;8.618;2023-04-27T10:12:31;94270.22;;;26.25;39.98
71194;BME280;58903;47.210;8.618;2023-04-27T10:15:24;94270.22;;;26.25;39.50
71194;BME280;58903;47.210;8.618;2023-04-27T10:17:51;94272.44;;;26.26;39.77
71194;BME280;58903;47.210;8.618;2023-04-27T10:20:40;94267.69;;;26.27;39.56
71194;BME280;58903;47.210;8.618;2023-04-27T10:23:06;94267.69;;;26.27;39.96
71194;BME280;58903;47.210;8.618;2023-04-27T10:25:53;94262.91;;;26.27;39.35
71194;BME280;58903;47.210;8.618;2023-04-27T10:28:37;94268.66;;;26.29;39.29
71194;BME280;58903;47.210;8.618;2023-04-27T10:31:09;94272.13;;;26.30;40.01
71194;BME280;58903;47.210;8.618;2023-04-27T10:33:41;94260.38;;;26.29;39.48
71194;BME280;58903;47.210;8.618;2023-04-27T10:36:13;94260.38;;;26.29;39.41
71194;BME280;58903;47.210;8.618;2023-04-27T10:38:40;94272.13;;;26.30;39.93
71194;BME280;58903;47.210;8.618;2023-04-27T10:41:16;94264.84;;;26.32;39.42
71194;BME280;58903;47.210;8.618;2023-04-27T10:43:45;94263.38;;;26.31;39.47
71194;BME280;58903;47.210;8.618;2023-04-27T10:46:14;94256.56;;;26.32;39.33
71194;BME280;58903;47.210;8.618;2023-04-27T10:48:42;94256.06;;;26.34;39.36
71194;BME280;58903;47.210;8.618;2023-04-27T10:51:09;94257.56;;;26.35;39.27
71194;BME280;58903;47.210;8.618;2023-04-27T10:53:51;94252.78;;;26.35;39.62
71194;BME280;58903;47.210;8.618;2023-04-27T10:56:25;94257.03;;;26.36;39.04
71194;BME280;58903;47.210;8.618;2023-04-27T10:58:53;94257.25;;;26.38;39.43
71194;BME280;58903;47.210;8.618;2023-04-27T11:01:30;94248.75;;;26.36;39.57
71194;BME280;58903;47.210;8.618;2023-04-27T11:04:11;94251.75;;;26.38;39.58
71194;BME280;58903;47.210;8.618;2023-04-27T11:06:43;94250.78;;;26.36;39.81
71194;BME280;58903;47.210;8.618;2023-04-27T11:09:13;94252.50;;;26.39;39.39
71194;BME280;58903;47.210;8.618;2023-04-27T11:12:32;94254.00;;;26.40;39.71
71194;BME280;58903;47.210;8.618;2023-04-27T11:15:05;94254.50;;;26.38;39.25
71194;BME280;58903;47.210;8.618;2023-04-27T11:17:35;94253.78;;;26.38;39.72
71194;BME280;58903;47.210;8.618;2023-04-27T11:20:11;94246.53;;;26.35;39.41
71194;BME280;58903;47.210;8.618;2023-04-27T11:22:51;94250.25;;;26.37;39.79
71194;BME280;58903;47.210;8.618;2023-04-27T11:25:39;94255.47;;;26.41;39.61
71194;BME280;58903;47.210;8.618;2023-04-27T11:28:19;94251.47;;;26.42;39.32
71194;BME280;58903;47.210;8.618;2023-04-27T11:31:12;94245.94;;;26.42;39.85
71194;BME280;58903;47.210;8.618;2023-04-27T11:33:47;94244.88;;;26.45;39.37
71194;BME280;58903;47.210;8.618;2023-04-27T11:36:22;94244.88;;;26.45;39.64
71194;BME280;58903;47.210;8.618;2023-04-27T11:38:56;94247.91;;;26.47;38.97
71194;BME280;58903;47.210;8.618;2023-04-27T11:41:42;94239.38;;;26.45;39.05
71194;BME280;58903;47.210;8.618;2023-04-27T11:44:17;94244.38;;;26.46;39.12
71194;BME280;58903;47.210;8.618;2023-04-27T11:46:53;94255.66;;;26.48;39.47
71194;BME280;58903;47.210;8.618;2023-04-27T11:49:28;94249.38;;;26.48;39.29
71194;BME280;58903;47.210;8.618;2023-04-27T11:52:01;94243.84;;;26.48;39.53
71194;BME280;58903;47.210;8.618;2023-04-27T11:54:36;94249.38;;;26.48;39.11
71194;BME280;58903;47.210;8.618;2023-04-27T11:57:11;94243.34;;;26.49;39.17
71194;BME280;58903;47.210;8.618;2023-04-27T11:59:48;94240.28;;;26.53;39.18
71194;BME280;58903;47.210;8.618;2023-04-27T12:02:15;94232.25;;;26.55;39.64
71194;BME280;58903;47.210;8.618;2023-04-27T12:04:46;94236.69;;;26.58;38.87
71194;BME280;58903;47.210;8.618;2023-04-27T12:07:21;94240.22;;;26.58;39.09
71194;BME280;58903;47.210;8.618;2023-04-27T12:09:51;94235.66;;;26.61;39.62
71194;BME280;58903;47.210;8.618;2023-04-27T12:12:18;94236.69;;;26.58;39.42
71194;BME280;58903;47.210;8.618;2023-04-27T12:14:48;94241.72;;;26.59;39.04
71194;BME280;58903;47.210;8.618;2023-04-27T12:17:16;94239.19;;;26.61;39.15
71194;BME280;58903;47.210;8.618;2023-04-27T12:19:44;94234.63;;;26.64;39.26
71194;BME280;58903;47.210;8.618;2023-04-27T12:22:36;94227.56;;;26.68;38.87
71194;BME280;58903;47.210;8.618;2023-04-27T12:25:12;94230.81;;;26.67;38.88
71194;BME280;58903;47.210;8.618;2023-04-27T12:27:51;94222.75;;;26.69;39.21
71194;BME280;58903;47.210;8.618;2023-04-27T12:30:19;94225.25;;;26.72;38.84
71194;BME280;58903;47.210;8.618;2023-04-27T12:32:55;94216.22;;;26.72;39.50
71194;BME280;58903;47.210;8.618;2023-04-27T12:35:28;94221.97;;;26.74;38.64
71194;BME280;58903;47.210;8.618;2023-04-27T12:37:58;94217.97;;;26.75;39.49
71194;BME280;58903;47.210;8.618;2023-04-27T12:40:26;94220.94;;;26.77;39.22
71194;BME280;58903;47.210;8.618;2023-04-27T12:43:03;94223.72;;;26.77;39.24
71194;BME280;58903;47.210;8.618;2023-04-27T12:48:58;94220.63;;;26.80;39.32
71194;BME280;58903;47.210;8.618;2023-04-27T12:51:26;94221.41;;;26.81;38.72
71194;BME280;58903;47.210;8.618;2023-04-27T12:54:07;94226.59;;;26.84;38.92
71194;BME280;58903;47.210;8.618;2023-04-27T12:56:43;94222.06;;;26.87;39.26
71194;BME280;58903;47.210;8.618;2023-04-27T13:02:45;94222.50;;;26.91;39.12
71194;BME280;58903;47.210;8.618;2023-04-27T13:05:15;94221.47;;;26.94;39.39
71194;BME280;58903;47.210;8.618;2023-04-27T13:07:51;94209.13;;;26.95;39.34
71194;BME280;58903;47.210;8.618;2023-04-27T13:10:26;94209.88;;;26.96;39.12
71194;BME280;58903;47.210;8.618;2023-04-27T13:13:26;94208.84;;;26.99;38.75
71194;BME280;58903;47.210;8.618;2023-04-27T13:15:53;94206.31;;;27.01;39.28
71194;BME280;58903;47.210;8.618;2023-04-27T13:18:53;94206.53;;;27.03;38.93
71194;BME280;58903;47.210;8.618;2023-04-27T13:21:44;94205.78;;;27.02;39.02
71194;BME280;58903;47.210;8.618;2023-04-27T13:24:18;94208.75;;;27.04;39.15
71194;BME280;58903;47.210;8.618;2023-04-27T13:26:44;94206.97;;;27.07;38.88
71194;BME280;58903;47.210;8.618;2023-04-27T13:29:14;94204.72;;;27.05;39.19
71194;BME280;58903;47.210;8.618;2023-04-27T13:32:01;94202.69;;;27.06;39.00
71194;BME280;58903;47.210;8.618;2023-04-27T13:34:38;94196.03;;;27.01;38.64
71194;BME280;58903;47.210;8.618;2023-04-27T13:37:17;94199.44;;;27.07;39.06
71194;BME280;58903;47.210;8.618;2023-04-27T13:39:45;94204.94;;;27.07;39.09
71194;BME280;58903;47.210;8.618;2023-04-27T13:42:23;94191.38;;;27.09;38.98
71194;BME280;58903;47.210;8.618;2023-04-27T13:45:05;94201.34;;;27.12;38.76
71194;BME280;58903;47.210;8.618;2023-04-27T13:48:03;94192.84;;;27.10;38.89
71194;BME280;58903;47.210;8.618;2023-04-27T13:50:29;94192.78;;;27.16;38.75
71194;BME280;58903;47.210;8.618;2023-04-27T13:52:57;94191.50;;;27.17;38.46
71194;BME280;58903;47.210;8.618;2023-04-27T13:55:26;94196.50;;;27.18;38.61
71194;BME280;58903;47.210;8.618;2023-04-27T13:57:56;94191.19;;;27.20;38.81
71194;BME280;58903;47.210;8.618;2023-04-27T14:00:21;94191.19;;;27.20;38.91
71194;BME280;58903;47.210;8.618;2023-04-27T14:02:48;94188.88;;;27.24;38.99
71194;BME280;58903;47.210;8.618;2023-04-27T14:05:16;94185.34;;;27.24;38.37
71194;BME280;58903;47.210;8.618;2023-04-27T14:07:53;94189.09;;;27.26;39.13